sensor_id;sensor_type;location;lat;lon;timestamp;temperature;humidity
68128;SHT30;54931;52.098;21.006;2023-12-20T00:00:06;6.07;88.20
68128;SHT30;54931;52.098;21.006;2023-12-20T00:02:35;6.08;88.32
68128;SHT30;54931;52.098;21.006;2023-12-20T00:05:03;6.08;88.28
68128;SHT30;54931;52.098;21.006;2023-12-20T00:07:36;6.09;88.38
68128;SHT30;54931;52.098;21.006;2023-12-20T00:10:04;6.11;88.39
68128;SHT30;54931;52.098;21.006;2023-12-20T00:12:32;6.11;88.41
68128;SHT30;54931;52.098;21.006;2023-12-20T00:15:00;6.12;88.42
68128;SHT30;54931;52.098;21.006;2023-12-20T00:17:29;6.12;88.39
68128;SHT30;54931;52.098;21.006;2023-12-20T00:19:56;6.14;88.35
68128;SHT30;54931;52.098;21.006;2023-12-20T00:22:23;6.14;88.31
68128;SHT30;54931;52.098;21.006;2023-12-20T00:24:51;6.14;88.41
68128;SHT30;54931;52.098;21.006;2023-12-20T00:27:19;6.13;88.45
68128;SHT30;54931;52.098;21.006;2023-12-20T00:29:46;6.14;88.42
68128;SHT30;54931;52.098;21.006;2023-12-20T00:32:17;6.14;88.39
68128;SHT30;54931;52.098;21.006;2023-12-20T00:34:45;6.15;88.43
68128;SHT30;54931;52.098;21.006;2023-12-20T00:37:13;6.15;88.35
68128;SHT30;54931;52.098;21.006;2023-12-20T00:39:41;6.15;88.43
68128;SHT30;54931;52.098;21.006;2023-12-20T00:42:09;6.15;88.40
68128;SHT30;54931;52.098;21.006;2023-12-20T00:44:36;6.15;88.40
68128;SHT30;54931;52.098;21.006;2023-12-20T00:47:04;6.14;88.41
68128;SHT30;54931;52.098;21.006;2023-12-20T00:49:32;6.15;88.51
68128;SHT30;54931;52.098;21.006;2023-12-20T00:52:00;6.15;88.44
68128;SHT30;54931;52.098;21.006;2023-12-20T00:54:27;6.15;88.40
68128;SHT30;54931;52.098;21.006;2023-12-20T00:56:56;6.15;88.44
68128;SHT30;54931;52.098;21.006;2023-12-20T00:59:23;6.14;88.40
68128;SHT30;54931;52.098;21.006;2023-12-20T01:01:51;6.14;88.40
68128;SHT30;54931;52.098;21.006;2023-12-20T01:04:19;6.14;88.37
68128;SHT30;54931;52.098;21.006;2023-12-20T01:06:46;6.14;88.33
68128;SHT30;54931;52.098;21.006;2023-12-20T01:09:14;6.12;88.36
68128;SHT30;54931;52.098;21.006;2023-12-20T01:11:42;6.12;88.41
68128;SHT30;54931;52.098;21.006;2023-12-20T01:14:10;6.12;88.38
68128;SHT30;54931;52.098;21.006;2023-12-20T01:16:39;6.10;88.41
68128;SHT30;54931;52.098;21.006;2023-12-20T01:19:06;6.10;88.52
68128;SHT30;54931;52.098;21.006;2023-12-20T01:21:34;6.10;88.46
68128;SHT30;54931;52.098;21.006;2023-12-20T01:24:01;6.09;88.52
68128;SHT30;54931;52.098;21.006;2023-12-20T01:26:29;6.10;88.49
68128;SHT30;54931;52.098;21.006;2023-12-20T01:28:57;6.11;88.53
68128;SHT30;54931;52.098;21.006;2023-12-20T01:31:26;6.12;88.59
68128;SHT30;54931;52.098;21.006;2023-12-20T01:33:54;6.11;88.53
68128;SHT30;54931;52.098;21.006;2023-12-20T01:36:21;6.11;88.52
68128;SHT30;54931;52.098;21.006;2023-12-20T01:38:49;6.11;88.60
68128;SHT30;54931;52.098;21.006;2023-12-20T01:41:17;6.12;88.60
68128;SHT30;54931;52.098;21.006;2023-12-20T01:43:45;6.11;88.50
68128;SHT30;54931;52.098;21.006;2023-12-20T01:46:12;6.10;88.55
68128;SHT30;54931;52.098;21.006;2023-12-20T01:48:41;6.11;88.57
68128;SHT30;54931;52.098;21.006;2023-12-20T01:51:10;6.09;88.63
68128;SHT30;54931;52.098;21.006;2023-12-20T01:53:38;6.10;88.68
68128;SHT30;54931;52.098;21.006;2023-12-20T01:56:08;6.10;88.60
68128;SHT30;54931;52.098;21.006;2023-12-20T01:58:39;6.09;88.61
68128;SHT30;54931;52.098;21.006;2023-12-20T02:01:12;6.09;88.59
68128;SHT30;54931;52.098;21.006;2023-12-20T02:03:41;6.09;88.60
68128;SHT30;54931;52.098;21.006;2023-12-20T02:06:09;6.09;88.63
68128;SHT30;54931;52.098;21.006;2023-12-20T02:08:40;6.10;88.59
68128;SHT30;54931;52.098;21.006;2023-12-20T02:11:07;6.09;88.56
68128;SHT30;54931;52.098;21.006;2023-12-20T02:13:35;6.08;88.53
68128;SHT30;54931;52.098;21.006;2023-12-20T02:16:03;6.07;88.54
68128;SHT30;54931;52.098;21.006;2023-12-20T02:18:31;6.07;88.58
68128;SHT30;54931;52.098;21.006;2023-12-20T02:20:59;6.06;88.55
68128;SHT30;54931;52.098;21.006;2023-12-20T02:23:27;6.05;88.52
68128;SHT30;54931;52.098;21.006;2023-12-20T02:25:54;6.04;88.53
68128;SHT30;54931;52.098;21.006;2023-12-20T02:28:26;6.05;88.52
68128;SHT30;54931;52.098;21.006;2023-12-20T02:30:55;6.04;88.50
68128;SHT30;54931;52.098;21.006;2023-12-20T02:33:23;6.04;88.53
68128;SHT30;54931;52.098;21.006;2023-12-20T02:35:50;6.04;88.45
68128;SHT30;54931;52.098;21.006;2023-12-20T02:38:22;6.04;88.49
68128;SHT30;54931;52.098;21.006;2023-12-20T02:40:50;6.04;88.50
68128;SHT30;54931;52.098;21.006;2023-12-20T02:43:18;6.03;88.47
68128;SHT30;54931;52.098;21.006;2023-12-20T02:45:46;6.06;88.50
68128;SHT30;54931;52.098;21.006;2023-12-20T02:48:14;6.06;88.45
68128;SHT30;54931;52.098;21.006;2023-12-20T02:50:45;6.06;88.42
68128;SHT30;54931;52.098;21.006;2023-12-20T02:53:15;6.06;88.44
68128;SHT30;54931;52.098;21.006;2023-12-20T02:55:43;6.06;88.46
68128;SHT30;54931;52.098;21.006;2023-12-20T02:58:11;6.06;88.51
68128;SHT30;54931;52.098;21.006;2023-12-20T03:00:39;6.06;88.44
68128;SHT30;54931;52.098;21.006;2023-12-20T03:03:07;6.05;88.41
68128;SHT30;54931;52.098;21.006;2023-12-20T03:05:35;6.05;88.44
68128;SHT30;54931;52.098;21.006;2023-12-20T03:08:03;6.05;88.45
68128;SHT30;54931;52.098;21.006;2023-12-20T03:10:32;6.05;88.40
68128;SHT30;54931;52.098;21.006;2023-12-20T03:13:00;6.05;88.40
68128;SHT30;54931;52.098;21.006;2023-12-20T03:15:29;6.04;88.44
68128;SHT30;54931;52.098;21.006;2023-12-20T03:17:57;6.04;88.45
68128;SHT30;54931;52.098;21.006;2023-12-20T03:20:26;6.04;88.42
68128;SHT30;54931;52.098;21.006;2023-12-20T03:22:54;6.03;88.41
68128;SHT30;54931;52.098;21.006;2023-12-20T03:25:22;6.03;88.40
68128;SHT30;54931;52.098;21.006;2023-12-20T03:27:50;6.02;88.47
68128;SHT30;54931;52.098;21.006;2023-12-20T03:30:18;6.02;88.48
68128;SHT30;54931;52.098;21.006;2023-12-20T03:32:47;6.01;88.44
68128;SHT30;54931;52.098;21.006;2023-12-20T03:35:15;6.01;88.63
68128;SHT30;54931;52.098;21.006;2023-12-20T03:37:43;6.01;88.54
68128;SHT30;54931;52.098;21.006;2023-12-20T03:40:10;6.02;88.52
68128;SHT30;54931;52.098;21.006;2023-12-20T03:42:38;6.01;88.60
68128;SHT30;54931;52.098;21.006;2023-12-20T03:45:06;6.02;88.60
68128;SHT30;54931;52.098;21.006;2023-12-20T03:47:35;6.02;88.61
68128;SHT30;54931;52.098;21.006;2023-12-20T03:50:03;6.03;88.55
68128;SHT30;54931;52.098;21.006;2023-12-20T03:52:32;6.03;88.49
68128;SHT30;54931;52.098;21.006;2023-12-20T03:55:00;6.02;88.50
68128;SHT30;54931;52.098;21.006;2023-12-20T03:57:28;6.02;88.50
68128;SHT30;54931;52.098;21.006;2023-12-20T03:59:55;6.01;88.47
68128;SHT30;54931;52.098;21.006;2023-12-20T04:02:23;6.01;88.40
68128;SHT30;54931;52.098;21.006;2023-12-20T04:04:51;5.98;88.44
68128;SHT30;54931;52.098;21.006;2023-12-20T04:07:20;5.99;88.42
68128;SHT30;54931;52.098;21.006;2023-12-20T04:09:47;5.97;88.40
68128;SHT30;54931;52.098;21.006;2023-12-20T04:12:16;5.96;88.44
68128;SHT30;54931;52.098;21.006;2023-12-20T04:15:04;5.95;88.46
68128;SHT30;54931;52.098;21.006;2023-12-20T04:17:36;5.95;88.49
68128;SHT30;54931;52.098;21.006;2023-12-20T04:20:04;5.95;88.49
68128;SHT30;54931;52.098;21.006;2023-12-20T04:22:33;5.95;88.50
68128;SHT30;54931;52.098;21.006;2023-12-20T04:25:01;5.95;88.57
68128;SHT30;54931;52.098;21.006;2023-12-20T04:27:29;5.95;88.57
68128;SHT30;54931;52.098;21.006;2023-12-20T04:29:57;5.94;88.66
68128;SHT30;54931;52.098;21.006;2023-12-20T04:32:25;5.95;88.64
68128;SHT30;54931;52.098;21.006;2023-12-20T04:34:53;5.96;88.67
68128;SHT30;54931;52.098;21.006;2023-12-20T04:37:20;5.98;88.59
68128;SHT30;54931;52.098;21.006;2023-12-20T04:39:49;5.96;88.56
68128;SHT30;54931;52.098;21.006;2023-12-20T04:42:17;5.95;88.50
68128;SHT30;54931;52.098;21.006;2023-12-20T04:44:44;5.97;88.49
68128;SHT30;54931;52.098;21.006;2023-12-20T04:47:13;5.96;88.48
68128;SHT30;54931;52.098;21.006;2023-12-20T04:49:41;5.95;88.54
68128;SHT30;54931;52.098;21.006;2023-12-20T04:52:09;5.95;88.49
68128;SHT30;54931;52.098;21.006;2023-12-20T04:54:36;5.95;88.55
68128;SHT30;54931;52.098;21.006;2023-12-20T04:57:04;5.95;88.61
68128;SHT30;54931;52.098;21.006;2023-12-20T04:59:32;5.95;88.54
68128;SHT30;54931;52.098;21.006;2023-12-20T05:02:00;5.94;88.54
68128;SHT30;54931;52.098;21.006;2023-12-20T05:04:28;5.93;88.63
68128;SHT30;54931;52.098;21.006;2023-12-20T05:06:56;5.94;88.66
68128;SHT30;54931;52.098;21.006;2023-12-20T05:09:23;5.93;88.71
68128;SHT30;54931;52.098;21.006;2023-12-20T05:11:51;5.94;88.66
68128;SHT30;54931;52.098;21.006;2023-12-20T05:14:19;5.94;88.69
68128;SHT30;54931;52.098;21.006;2023-12-20T05:16:47;5.95;88.74
68128;SHT30;54931;52.098;21.006;2023-12-20T05:19:15;5.95;88.74
68128;SHT30;54931;52.098;21.006;2023-12-20T05:21:43;5.93;88.73
68128;SHT30;54931;52.098;21.006;2023-12-20T05:24:11;5.93;88.77
68128;SHT30;54931;52.098;21.006;2023-12-20T05:26:40;5.93;88.76
68128;SHT30;54931;52.098;21.006;2023-12-20T05:29:08;5.93;88.75
68128;SHT30;54931;52.098;21.006;2023-12-20T05:31:36;5.92;88.70
68128;SHT30;54931;52.098;21.006;2023-12-20T05:34:04;5.92;88.63
68128;SHT30;54931;52.098;21.006;2023-12-20T05:36:32;5.91;88.71
68128;SHT30;54931;52.098;21.006;2023-12-20T05:39:00;5.89;88.63
68128;SHT30;54931;52.098;21.006;2023-12-20T05:41:28;5.89;88.63
68128;SHT30;54931;52.098;21.006;2023-12-20T05:43:55;5.89;88.70
68128;SHT30;54931;52.098;21.006;2023-12-20T05:46:25;5.89;88.63
68128;SHT30;54931;52.098;21.006;2023-12-20T05:48:54;5.88;88.63
68128;SHT30;54931;52.098;21.006;2023-12-20T05:51:22;5.88;88.70
68128;SHT30;54931;52.098;21.006;2023-12-20T05:53:52;5.88;88.77
68128;SHT30;54931;52.098;21.006;2023-12-20T05:56:19;5.88;88.82
68128;SHT30;54931;52.098;21.006;2023-12-20T05:58:47;5.90;88.79
68128;SHT30;54931;52.098;21.006;2023-12-20T06:01:15;5.89;88.80
68128;SHT30;54931;52.098;21.006;2023-12-20T06:03:45;5.88;88.80
68128;SHT30;54931;52.098;21.006;2023-12-20T06:06:13;5.88;88.74
68128;SHT30;54931;52.098;21.006;2023-12-20T06:08:41;5.87;88.72
68128;SHT30;54931;52.098;21.006;2023-12-20T06:11:10;5.88;88.70
68128;SHT30;54931;52.098;21.006;2023-12-20T06:13:42;5.88;88.74
68128;SHT30;54931;52.098;21.006;2023-12-20T06:16:09;5.87;88.73
68128;SHT30;54931;52.098;21.006;2023-12-20T06:18:37;5.87;88.77
68128;SHT30;54931;52.098;21.006;2023-12-20T06:21:05;5.86;88.77
68128;SHT30;54931;52.098;21.006;2023-12-20T06:23:35;5.86;88.76
68128;SHT30;54931;52.098;21.006;2023-12-20T06:26:03;5.86;88.73
68128;SHT30;54931;52.098;21.006;2023-12-20T06:28:31;5.85;88.71
68128;SHT30;54931;52.098;21.006;2023-12-20T06:30:59;5.85;88.76
68128;SHT30;54931;52.098;21.006;2023-12-20T06:33:28;5.84;88.78
68128;SHT30;54931;52.098;21.006;2023-12-20T06:35:58;5.85;88.82
68128;SHT30;54931;52.098;21.006;2023-12-20T06:38:26;5.85;88.86
68128;SHT30;54931;52.098;21.006;2023-12-20T06:40:53;5.84;88.89
68128;SHT30;54931;52.098;21.006;2023-12-20T06:43:22;5.84;88.88
68128;SHT30;54931;52.098;21.006;2023-12-20T06:45:49;5.83;88.85
68128;SHT30;54931;52.098;21.006;2023-12-20T06:48:18;5.84;88.91
68128;SHT30;54931;52.098;21.006;2023-12-20T06:50:45;5.84;88.84
68128;SHT30;54931;52.098;21.006;2023-12-20T06:53:13;5.84;88.80
68128;SHT30;54931;52.098;21.006;2023-12-20T06:55:41;5.84;88.83
68128;SHT30;54931;52.098;21.006;2023-12-20T06:58:09;5.84;88.78
68128;SHT30;54931;52.098;21.006;2023-12-20T07:00:37;5.83;88.80
68128;SHT30;54931;52.098;21.006;2023-12-20T07:03:05;5.84;88.80
68128;SHT30;54931;52.098;21.006;2023-12-20T07:05:33;5.84;88.88
68128;SHT30;54931;52.098;21.006;2023-12-20T07:08:01;5.84;88.90
68128;SHT30;54931;52.098;21.006;2023-12-20T07:10:30;5.85;88.98
68128;SHT30;54931;52.098;21.006;2023-12-20T07:12:57;5.85;88.98
68128;SHT30;54931;52.098;21.006;2023-12-20T07:15:25;5.86;88.94
68128;SHT30;54931;52.098;21.006;2023-12-20T07:17:54;5.87;88.92
68128;SHT30;54931;52.098;21.006;2023-12-20T07:20:22;5.87;88.92
68128;SHT30;54931;52.098;21.006;2023-12-20T07:22:50;5.89;88.92
68128;SHT30;54931;52.098;21.006;2023-12-20T07:25:18;5.89;88.96
68128;SHT30;54931;52.098;21.006;2023-12-20T07:27:47;5.90;88.97
68128;SHT30;54931;52.098;21.006;2023-12-20T07:30:15;5.91;89.00
68128;SHT30;54931;52.098;21.006;2023-12-20T07:32:44;5.92;89.01
68128;SHT30;54931;52.098;21.006;2023-12-20T07:35:12;5.93;89.00
68128;SHT30;54931;52.098;21.006;2023-12-20T07:37:40;5.93;89.08
68128;SHT30;54931;52.098;21.006;2023-12-20T07:40:08;5.94;89.05
68128;SHT30;54931;52.098;21.006;2023-12-20T07:42:37;5.95;89.00
68128;SHT30;54931;52.098;21.006;2023-12-20T07:45:05;5.96;89.01
68128;SHT30;54931;52.098;21.006;2023-12-20T07:47:34;5.97;89.03
68128;SHT30;54931;52.098;21.006;2023-12-20T07:50:02;5.98;88.99
68128;SHT30;54931;52.098;21.006;2023-12-20T07:52:31;5.98;88.96
68128;SHT30;54931;52.098;21.006;2023-12-20T07:54:59;5.99;88.99
68128;SHT30;54931;52.098;21.006;2023-12-20T07:57:30;6.00;88.96
68128;SHT30;54931;52.098;21.006;2023-12-20T07:59:58;5.99;88.93
68128;SHT30;54931;52.098;21.006;2023-12-20T08:02:26;6.00;88.94
68128;SHT30;54931;52.098;21.006;2023-12-20T08:04:54;6.01;88.94
68128;SHT30;54931;52.098;21.006;2023-12-20T08:07:23;6.01;88.89
68128;SHT30;54931;52.098;21.006;2023-12-20T08:09:51;6.01;88.87
68128;SHT30;54931;52.098;21.006;2023-12-20T08:12:20;6.00;88.82
68128;SHT30;54931;52.098;21.006;2023-12-20T08:14:47;5.99;88.81
68128;SHT30;54931;52.098;21.006;2023-12-20T08:17:16;6.00;88.80
68128;SHT30;54931;52.098;21.006;2023-12-20T08:19:46;6.00;88.73
68128;SHT30;54931;52.098;21.006;2023-12-20T08:22:13;6.00;88.75
68128;SHT30;54931;52.098;21.006;2023-12-20T08:24:41;6.00;88.72
68128;SHT30;54931;52.098;21.006;2023-12-20T08:27:09;5.99;88.70
68128;SHT30;54931;52.098;21.006;2023-12-20T08:29:37;6.00;88.70
68128;SHT30;54931;52.098;21.006;2023-12-20T08:32:05;5.99;88.71
68128;SHT30;54931;52.098;21.006;2023-12-20T08:34:33;6.00;88.71
68128;SHT30;54931;52.098;21.006;2023-12-20T08:37:01;6.01;88.71
68128;SHT30;54931;52.098;21.006;2023-12-20T08:39:30;6.02;88.76
68128;SHT30;54931;52.098;21.006;2023-12-20T08:42:01;6.01;88.74
68128;SHT30;54931;52.098;21.006;2023-12-20T08:44:29;6.01;88.77
68128;SHT30;54931;52.098;21.006;2023-12-20T08:46:57;6.00;88.77
68128;SHT30;54931;52.098;21.006;2023-12-20T08:49:25;6.01;88.76
68128;SHT30;54931;52.098;21.006;2023-12-20T08:51:53;6.02;88.77
68128;SHT30;54931;52.098;21.006;2023-12-20T08:54:22;6.02;88.71
68128;SHT30;54931;52.098;21.006;2023-12-20T08:56:50;6.04;88.74
68128;SHT30;54931;52.098;21.006;2023-12-20T08:59:18;6.05;88.77
68128;SHT30;54931;52.098;21.006;2023-12-20T09:01:46;6.09;88.76
68128;SHT30;54931;52.098;21.006;2023-12-20T09:04:15;6.11;88.77
68128;SHT30;54931;52.098;21.006;2023-12-20T09:06:43;6.14;88.77
68128;SHT30;54931;52.098;21.006;2023-12-20T09:09:11;6.16;88.71
68128;SHT30;54931;52.098;21.006;2023-12-20T09:11:42;6.19;88.70
68128;SHT30;54931;52.098;21.006;2023-12-20T09:14:10;6.20;88.63
68128;SHT30;54931;52.098;21.006;2023-12-20T09:16:38;6.23;88.62
68128;SHT30;54931;52.098;21.006;2023-12-20T09:19:06;6.24;88.59
68128;SHT30;54931;52.098;21.006;2023-12-20T09:21:35;6.24;88.50
68128;SHT30;54931;52.098;21.006;2023-12-20T09:24:03;6.24;88.50
68128;SHT30;54931;52.098;21.006;2023-12-20T09:26:33;6.24;88.50
68128;SHT30;54931;52.098;21.006;2023-12-20T09:29:05;6.23;88.48
68128;SHT30;54931;52.098;21.006;2023-12-20T09:31:36;6.24;88.41
68128;SHT30;54931;52.098;21.006;2023-12-20T09:34:04;6.23;88.46
68128;SHT30;54931;52.098;21.006;2023-12-20T09:36:32;6.24;88.45
68128;SHT30;54931;52.098;21.006;2023-12-20T09:39:03;6.25;88.48
68128;SHT30;54931;52.098;21.006;2023-12-20T09:41:31;6.27;88.50
68128;SHT30;54931;52.098;21.006;2023-12-20T09:44:10;6.29;88.50
68128;SHT30;54931;52.098;21.006;2023-12-20T09:46:46;6.30;88.49
68128;SHT30;54931;52.098;21.006;2023-12-20T09:49:20;6.30;88.42
68128;SHT30;54931;52.098;21.006;2023-12-20T09:51:50;6.31;88.34
68128;SHT30;54931;52.098;21.006;2023-12-20T09:54:19;6.30;88.35
68128;SHT30;54931;52.098;21.006;2023-12-20T09:56:49;6.29;88.26
68128;SHT30;54931;52.098;21.006;2023-12-20T09:59:18;6.27;88.31
68128;SHT30;54931;52.098;21.006;2023-12-20T10:01:46;6.28;88.33
68128;SHT30;54931;52.098;21.006;2023-12-20T10:04:13;6.28;88.28
68128;SHT30;54931;52.098;21.006;2023-12-20T10:06:43;6.28;88.29
68128;SHT30;54931;52.098;21.006;2023-12-20T10:09:16;6.28;88.32
68128;SHT30;54931;52.098;21.006;2023-12-20T10:11:43;6.28;88.23
68128;SHT30;54931;52.098;21.006;2023-12-20T10:14:12;6.27;88.26
68128;SHT30;54931;52.098;21.006;2023-12-20T10:16:42;6.27;88.25
68128;SHT30;54931;52.098;21.006;2023-12-20T10:19:10;6.27;88.29
68128;SHT30;54931;52.098;21.006;2023-12-20T10:21:37;6.28;88.36
68128;SHT30;54931;52.098;21.006;2023-12-20T10:24:05;6.29;88.33
68128;SHT30;54931;52.098;21.006;2023-12-20T10:26:34;6.29;88.34
68128;SHT30;54931;52.098;21.006;2023-12-20T10:29:02;6.29;88.30
68128;SHT30;54931;52.098;21.006;2023-12-20T10:31:33;6.30;88.30
68128;SHT30;54931;52.098;21.006;2023-12-20T10:34:03;6.29;88.21
68128;SHT30;54931;52.098;21.006;2023-12-20T10:36:32;6.28;88.24
68128;SHT30;54931;52.098;21.006;2023-12-20T10:39:01;6.27;88.20
68128;SHT30;54931;52.098;21.006;2023-12-20T10:41:32;6.23;88.14
68128;SHT30;54931;52.098;21.006;2023-12-20T10:44:03;6.23;88.25
68128;SHT30;54931;52.098;21.006;2023-12-20T10:46:34;6.24;88.25
68128;SHT30;54931;52.098;21.006;2023-12-20T10:49:02;6.24;88.21
68128;SHT30;54931;52.098;21.006;2023-12-20T10:51:32;6.23;88.23
68128;SHT30;54931;52.098;21.006;2023-12-20T10:54:02;6.25;88.19
68128;SHT30;54931;52.098;21.006;2023-12-20T10:56:32;6.25;88.14
68128;SHT30;54931;52.098;21.006;2023-12-20T10:59:02;6.26;88.14
68128;SHT30;54931;52.098;21.006;2023-12-20T11:01:33;6.24;87.84
68128;SHT30;54931;52.098;21.006;2023-12-20T11:04:03;6.23;87.89
68128;SHT30;54931;52.098;21.006;2023-12-20T11:06:40;6.24;87.94
68128;SHT30;54931;52.098;21.006;2023-12-20T11:12:04;6.24;87.90
68128;SHT30;54931;52.098;21.006;2023-12-20T11:14:42;6.25;87.97
68128;SHT30;54931;52.098;21.006;2023-12-20T11:17:17;6.27;88.02
68128;SHT30;54931;52.098;21.006;2023-12-20T11:22:28;6.27;87.98
68128;SHT30;54931;52.098;21.006;2023-12-20T11:25:05;6.27;87.96
68128;SHT30;54931;52.098;21.006;2023-12-20T11:27:40;6.27;87.90
68128;SHT30;54931;52.098;21.006;2023-12-20T11:30:13;6.26;87.97
68128;SHT30;54931;52.098;21.006;2023-12-20T11:32:42;6.26;87.96
68128;SHT30;54931;52.098;21.006;2023-12-20T11:37:41;6.27;87.99
68128;SHT30;54931;52.098;21.006;2023-12-20T11:40:16;6.27;87.99
68128;SHT30;54931;52.098;21.006;2023-12-20T11:42:48;6.26;87.99
68128;SHT30;54931;52.098;21.006;2023-12-20T11:45:19;6.26;87.95
68128;SHT30;54931;52.098;21.006;2023-12-20T11:47:49;6.25;88.04
68128;SHT30;54931;52.098;21.006;2023-12-20T11:50:19;6.28;88.10
68128;SHT30;54931;52.098;21.006;2023-12-20T11:52:49;6.29;88.04
68128;SHT30;54931;52.098;21.006;2023-12-20T11:55:24;6.30;88.10
68128;SHT30;54931;52.098;21.006;2023-12-20T11:57:53;6.32;88.10
68128;SHT30;54931;52.098;21.006;2023-12-20T12:00:21;6.32;88.04
68128;SHT30;54931;52.098;21.006;2023-12-20T12:02:55;6.33;88.00
68128;SHT30;54931;52.098;21.006;2023-12-20T12:05:28;6.31;88.00
68128;SHT30;54931;52.098;21.006;2023-12-20T12:07:59;6.28;87.92
68128;SHT30;54931;52.098;21.006;2023-12-20T12:10:28;6.26;87.83
68128;SHT30;54931;52.098;21.006;2023-12-20T12:12:57;6.22;87.70
68128;SHT30;54931;52.098;21.006;2023-12-20T12:15:25;6.19;87.72
68128;SHT30;54931;52.098;21.006;2023-12-20T12:17:54;6.14;87.66
68128;SHT30;54931;52.098;21.006;2023-12-20T12:20:28;6.10;87.34
68128;SHT30;54931;52.098;21.006;2023-12-20T12:22:59;6.07;87.43
68128;SHT30;54931;52.098;21.006;2023-12-20T12:25:32;6.03;87.34
68128;SHT30;54931;52.098;21.006;2023-12-20T12:28:04;6.01;87.23
68128;SHT30;54931;52.098;21.006;2023-12-20T12:30:32;5.97;87.33
68128;SHT30;54931;52.098;21.006;2023-12-20T12:33:01;5.94;87.32
68128;SHT30;54931;52.098;21.006;2023-12-20T12:35:31;5.91;87.26
68128;SHT30;54931;52.098;21.006;2023-12-20T12:37:59;5.88;87.30
68128;SHT30;54931;52.098;21.006;2023-12-20T12:40:27;5.86;87.24
68128;SHT30;54931;52.098;21.006;2023-12-20T12:42:55;5.83;87.08
68128;SHT30;54931;52.098;21.006;2023-12-20T12:45:24;5.80;87.04
68128;SHT30;54931;52.098;21.006;2023-12-20T12:47:54;5.77;87.13
68128;SHT30;54931;52.098;21.006;2023-12-20T12:50:22;5.74;87.14
68128;SHT30;54931;52.098;21.006;2023-12-20T12:52:50;5.71;87.21
68128;SHT30;54931;52.098;21.006;2023-12-20T12:55:18;5.70;87.28
68128;SHT30;54931;52.098;21.006;2023-12-20T12:57:46;5.66;87.19
68128;SHT30;54931;52.098;21.006;2023-12-20T13:00:14;5.67;87.20
68128;SHT30;54931;52.098;21.006;2023-12-20T13:02:43;5.65;87.12
68128;SHT30;54931;52.098;21.006;2023-12-20T13:05:11;5.64;87.04
68128;SHT30;54931;52.098;21.006;2023-12-20T13:07:38;5.63;86.85
68128;SHT30;54931;52.098;21.006;2023-12-20T13:10:07;5.63;86.93
68128;SHT30;54931;52.098;21.006;2023-12-20T13:12:35;5.62;86.94
68128;SHT30;54931;52.098;21.006;2023-12-20T13:15:04;5.61;86.78
68128;SHT30;54931;52.098;21.006;2023-12-20T13:17:32;5.59;86.88
68128;SHT30;54931;52.098;21.006;2023-12-20T13:20:00;5.57;86.84
68128;SHT30;54931;52.098;21.006;2023-12-20T13:22:29;5.58;86.76
68128;SHT30;54931;52.098;21.006;2023-12-20T13:24:56;5.58;86.69
68128;SHT30;54931;52.098;21.006;2023-12-20T13:27:24;5.57;86.70
68128;SHT30;54931;52.098;21.006;2023-12-20T13:29:53;5.57;86.62
68128;SHT30;54931;52.098;21.006;2023-12-20T13:32:21;5.59;86.61
68128;SHT30;54931;52.098;21.006;2023-12-20T13:34:49;5.59;86.63
68128;SHT30;54931;52.098;21.006;2023-12-20T13:37:18;5.58;86.52
68128;SHT30;54931;52.098;21.006;2023-12-20T13:39:46;5.59;86.48
68128;SHT30;54931;52.098;21.006;2023-12-20T13:42:14;5.60;86.60
68128;SHT30;54931;52.098;21.006;2023-12-20T13:44:42;5.59;86.63
68128;SHT30;54931;52.098;21.006;2023-12-20T13:47:10;5.59;86.61
68128;SHT30;54931;52.098;21.006;2023-12-20T13:49:38;5.60;86.59
68128;SHT30;54931;52.098;21.006;2023-12-20T13:52:07;5.61;86.57
68128;SHT30;54931;52.098;21.006;2023-12-20T13:54:35;5.61;86.56
68128;SHT30;54931;52.098;21.006;2023-12-20T13:57:03;5.60;86.37
68128;SHT30;54931;52.098;21.006;2023-12-20T13:59:32;5.56;86.33
68128;SHT30;54931;52.098;21.006;2023-12-20T14:02:00;5.51;86.31
68128;SHT30;54931;52.098;21.006;2023-12-20T14:04:30;5.46;86.12
68128;SHT30;54931;52.098;21.006;2023-12-20T14:06:59;5.43;86.12
68128;SHT30;54931;52.098;21.006;2023-12-20T14:09:27;5.38;86.17
68128;SHT30;54931;52.098;21.006;2023-12-20T14:11:55;5.36;86.22
68128;SHT30;54931;52.098;21.006;2023-12-20T14:14:23;5.35;86.20
68128;SHT30;54931;52.098;21.006;2023-12-20T14:16:51;5.35;86.19
68128;SHT30;54931;52.098;21.006;2023-12-20T14:19:19;5.35;86.06
68128;SHT30;54931;52.098;21.006;2023-12-20T14:21:47;5.35;86.11
68128;SHT30;54931;52.098;21.006;2023-12-20T14:24:15;5.35;85.87
68128;SHT30;54931;52.098;21.006;2023-12-20T14:26:43;5.32;85.36
68128;SHT30;54931;52.098;21.006;2023-12-20T14:29:11;5.30;85.02
68128;SHT30;54931;52.098;21.006;2023-12-20T14:31:39;5.30;84.90
68128;SHT30;54931;52.098;21.006;2023-12-20T14:37:00;5.26;84.48
68128;SHT30;54931;52.098;21.006;2023-12-20T14:39:28;5.26;84.26
68128;SHT30;54931;52.098;21.006;2023-12-20T14:41:56;5.26;83.96
68128;SHT30;54931;52.098;21.006;2023-12-20T14:44:24;5.25;84.06
68128;SHT30;54931;52.098;21.006;2023-12-20T14:46:53;5.24;84.05
68128;SHT30;54931;52.098;21.006;2023-12-20T14:49:21;5.21;83.99
68128;SHT30;54931;52.098;21.006;2023-12-20T14:51:49;5.20;84.20
68128;SHT30;54931;52.098;21.006;2023-12-20T14:54:17;5.16;84.35
68128;SHT30;54931;52.098;21.006;2023-12-20T14:56:44;5.13;84.07
68128;SHT30;54931;52.098;21.006;2023-12-20T14:59:13;5.11;83.98
68128;SHT30;54931;52.098;21.006;2023-12-20T15:01:43;5.12;83.72
68128;SHT30;54931;52.098;21.006;2023-12-20T15:04:11;5.12;83.58
68128;SHT30;54931;52.098;21.006;2023-12-20T15:06:40;5.12;83.24
68128;SHT30;54931;52.098;21.006;2023-12-20T15:09:08;5.12;83.35
68128;SHT30;54931;52.098;21.006;2023-12-20T15:11:37;5.09;83.47
68128;SHT30;54931;52.098;21.006;2023-12-20T15:14:05;5.06;83.34
68128;SHT30;54931;52.098;21.006;2023-12-20T15:16:35;5.05;83.55
68128;SHT30;54931;52.098;21.006;2023-12-20T15:19:03;5.00;83.71
68128;SHT30;54931;52.098;21.006;2023-12-20T15:21:31;4.97;83.76
68128;SHT30;54931;52.098;21.006;2023-12-20T15:24:02;4.95;83.71
68128;SHT30;54931;52.098;21.006;2023-12-20T15:26:41;4.96;83.72
68128;SHT30;54931;52.098;21.006;2023-12-20T15:29:10;4.95;83.90
68128;SHT30;54931;52.098;21.006;2023-12-20T15:31:45;4.95;83.62
68128;SHT30;54931;52.098;21.006;2023-12-20T15:34:15;4.96;83.83
68128;SHT30;54931;52.098;21.006;2023-12-20T15:36:43;4.95;83.85
68128;SHT30;54931;52.098;21.006;2023-12-20T15:39:11;4.97;83.85
68128;SHT30;54931;52.098;21.006;2023-12-20T15:41:41;4.98;83.77
68128;SHT30;54931;52.098;21.006;2023-12-20T15:44:10;4.99;83.68
68128;SHT30;54931;52.098;21.006;2023-12-20T15:46:38;5.00;83.49
68128;SHT30;54931;52.098;21.006;2023-12-20T15:49:07;5.02;83.35